Flight Track Log - Related Links

Times and Time Zones

All times are in EDT time to prevent confusion due to time zone crossing. See the JBU33 flight status page for this flight to view local times or setup timezone preferences in your user account.

Time Position Orientation Groundspeed Altitude Reporting Facility
EDT Latitude Longitude Course Direction KTS MPH feet Rate Location/Type
Fri 01:24:25 PM 44.3758 -73.1575 196° South 197 227 4,700  Level Boston Center
Fri 01:25:00 PM 44.1624 -73.2641 195° South  Level FlightAware Approximate
Fri 01:25:25 PM 44.3089 -73.1828 195° South 238 274 7,900  Level Boston Center
Fri 01:26:00 PM 44.0859 -73.2928 195° South  Level FlightAware Approximate
Fri 01:26:25 PM 44.2378 -73.2136 197° South 262 302 11,000  Level Boston Center
Fri 01:27:00 PM 44.0090 -73.3193 194° South  Level FlightAware Approximate
Fri 01:27:25 PM 44.1711 -73.2389 195° South 294 338 12,400  Level Boston Center
Fri 01:28:00 PM 43.9319 -73.3449 193° South  Level FlightAware Approximate
Fri 01:28:25 PM 44.0667 -73.2808 196° South 326 375 15,300  Level Boston Center
Fri 01:29:00 PM 43.8556 -73.3745 196° South  Level FlightAware Approximate
Fri 01:29:25 PM 43.9786 -73.3200 198° South 334 384 18,900  Level Boston Center
Fri 01:30:25 PM 43.8783 -73.3589 196° South 343 395 21,400 2,300 Climbing Boston Center
Fri 01:31:25 PM 43.7864 -73.3950 196° South 343 395 23,500 2,000 Climbing Boston Center
Fri 01:32:25 PM 43.6903 -73.4364 197° South 350 403 25,400 1,800 Climbing Boston Center
Fri 01:33:25 PM 43.6067 -73.4694 196° South 350 403 27,100 1,300 Climbing Boston Center
Fri 01:34:25 PM 43.5083 -73.5078 196° South 356 410 28,000 450 Climbing Boston Center
Fri 01:35:25 PM 43.4036 -73.5461 195° South 361 415 28,000  Level Boston Center
Fri 01:36:25 PM 43.3075 -73.5842 196° South 361 415 28,000  Level Boston Center
Fri 01:37:25 PM 43.2111 -73.6222 196° South 361 415 28,000  Level Boston Center
Fri 01:38:25 PM 43.1233 -73.6575 196° South 361 415 28,000  Level Boston Center
Fri 01:39:25 PM 43.0269 -73.6956 196° South 361 415 28,000  Level Boston Center
Fri 01:40:25 PM 42.9475 -73.7250 195° South 361 415 28,000  Level Boston Center
Fri 01:41:25 PM 42.8367 -73.7708 197° South 361 415 28,000  Level Boston Center
Fri 01:42:25 PM 42.7381 -73.8056 195° South 361 415 28,000  Level Boston Center
Fri 01:43:25 PM 42.6361 -73.8089 181° South 361 415 28,000  Level Boston Center
Fri 01:44:25 PM 42.5358 -73.8122 181° South 366 421 28,000  Level Boston Center
Fri 01:45:25 PM 42.4358 -73.8158 182° South 366 421 28,000  Level Boston Center
Fri 01:46:25 PM 42.3336 -73.8136 179° South 366 421 28,000  Level Boston Center
Fri 01:47:25 PM 42.2317 -73.8169 181° South 366 421 28,000  Level Boston Center
Fri 01:48:25 PM 42.1314 -73.8203 181° South 366 421 28,000  Level Boston Center
Fri 01:49:25 PM 42.0294 -73.8208 180° South 366 421 28,000 -50 Level Boston Center
Fri 01:50:25 PM 41.9311 -73.8436 190° South 361 415 27,900 -700 Descending Boston Center
Fri 01:51:25 PM 41.8469 -73.9089 210° Southwest 355 409 26,600 -1,319 Descending Boston Center
Fri 01:53:36 PM 41.6503 -74.0108 201° Southwest 339 390 23,700 -1,382 Descending New York Center
Fri 01:54:36 PM 41.5456 -74.0281 187° South 355 409 22,200 -1,388 Descending New York Center
Fri 01:55:37 PM 41.4492 -74.0508 190° South 357 411 20,900 -1,082 Descending New York Center
Fri 01:56:38 PM 41.3650 -74.0856 197° South 332 382 20,000 -605 Descending New York Center
Fri 01:57:36 PM 41.2822 -74.1422 207° Southwest 321 369 19,700 -504 Descending New York Center
Fri 01:58:37 PM 41.1947 -74.1433 181° South 326 375 19,000 -347 Descending New York Center
Fri 01:59:37 PM 41.0883 -74.1433 180° South 337 388 19,000  Level New York Center
Fri 02:00:25 PM 41.0167 -74.1333 174° South 319 367 19,000 -667 Level New York TRACON
Fri 02:01:25 PM 40.9333 -74.0833 156° South 332 382 17,800 -1,438 Descending New York TRACON
Fri 02:02:26 PM 40.8667 -74.0000 137° Southeast 325 374 16,100 -1,388 Descending New York TRACON
Fri 02:03:26 PM 40.8000 -73.9333 143° Southeast 317 365 15,000 -1,400 Descending New York TRACON
Fri 02:04:26 PM 40.7333 -73.8667 143° Southeast 306 352 13,300 -1,000 Descending New York TRACON
Fri 02:05:26 PM 40.6667 -73.7833 137° Southeast 270 311 13,000 -1,276 Descending New York TRACON
Fri 02:07:20 PM 40.5167 -73.6833 153° Southeast 283 326 9,600 -1,800 Descending New York TRACON
Fri 02:08:26 PM 40.4500 -73.7000 191° South 267 307 7,600 -1,900 Descending New York TRACON
Fri 02:09:20 PM 40.4000 -73.7500 217° Southwest 263 303 5,800 -1,474 Descending New York TRACON
Fri 02:10:20 PM 40.3833 -73.8333 255° West 239 275 4,800 -1,000 Descending New York TRACON
Fri 02:11:26 PM 40.3833 -73.9167 270° West 222 255 3,700 -857 Descending New York TRACON
Fri 02:12:26 PM 40.4333 -73.9833 315° West 221 254 3,000 -300 Descending New York TRACON
Fri 02:13:26 PM 40.4833 -73.9833 360° North 225 259 3,100 50 Climbing New York TRACON
Fri 02:14:26 PM 40.5333 -73.9500 27° Northeast 187 215 3,100 -400 Level New York TRACON
Fri 02:15:26 PM 40.5833 -73.9167 27° Northeast 184 212 2,300 -895 Descending New York TRACON
Fri 02:16:20 PM 40.6167 -73.8833 37° Northeast 180 207 1,400 -684 Descending New York TRACON
Fri 02:17:20 PM 40.6500 -73.8500 37° Northeast 152 175 1,000 -500 Descending New York TRACON
Fri 02:18:20 PM 40.6667 -73.8000 66° East 145 167 400 -600 Descending New York TRACON
Fri 02:20:00 PM 40.6398 -73.7789 180° South  Level Estimated

Login

Don't have an account? Register now (free) for customized features, flight alerts, and more!